sensor_id;sensor_type;location;lat;lon;timestamp;pressure;altitude;pressure_sealevel;temperature;humidity
11987;BME280;6053;51.382;6.768;2023-03-04T00:00:35;102174.53;;;8.08;77.37
11987;BME280;6053;51.382;6.768;2023-03-04T00:03:10;102174.94;;;8.27;76.34
11987;BME280;6053;51.382;6.768;2023-03-04T00:05:41;102178.53;;;8.28;76.59
11987;BME280;6053;51.382;6.768;2023-03-04T00:08:10;102174.78;;;8.29;76.42
11987;BME280;6053;51.382;6.768;2023-03-04T00:10:39;102176.72;;;7.89;75.52
11987;BME280;6053;51.382;6.768;2023-03-04T00:13:07;102181.53;;;7.87;76.63
11987;BME280;6053;51.382;6.768;2023-03-04T00:15:36;102175.69;;;7.90;77.83
11987;BME280;6053;51.382;6.768;2023-03-04T00:18:05;102167.84;;;8.10;76.81
11987;BME280;6053;51.382;6.768;2023-03-04T00:20:34;102174.69;;;8.14;74.43
11987;BME280;6053;51.382;6.768;2023-03-04T00:23:03;102169.06;;;8.08;75.87
11987;BME280;6053;51.382;6.768;2023-03-04T00:25:32;102168.28;;;8.22;77.01
11987;BME280;6053;51.382;6.768;2023-03-04T00:28:00;102164.78;;;8.28;76.61
11987;BME280;6053;51.382;6.768;2023-03-04T00:30:29;102162.38;;;8.33;76.21
11987;BME280;6053;51.382;6.768;2023-03-04T00:32:58;102176.31;;;8.32;76.31
11987;BME280;6053;51.382;6.768;2023-03-04T00:35:27;102171.47;;;8.34;76.34
11987;BME280;6053;51.382;6.768;2023-03-04T00:37:57;102162.84;;;8.37;76.20
11987;BME280;6053;51.382;6.768;2023-03-04T00:40:25;102160.28;;;8.35;76.05
11987;BME280;6053;51.382;6.768;2023-03-04T00:42:54;102166.69;;;8.27;75.81
11987;BME280;6053;51.382;6.768;2023-03-04T00:45:22;102158.94;;;8.31;76.30
11987;BME280;6053;51.382;6.768;2023-03-04T00:47:51;102161.31;;;8.34;76.30
11987;BME280;6053;51.382;6.768;2023-03-04T00:50:20;102161.50;;;8.33;76.62
11987;BME280;6053;51.382;6.768;2023-03-04T00:52:48;102165.31;;;8.32;76.19
11987;BME280;6053;51.382;6.768;2023-03-04T00:55:18;102162.84;;;8.37;76.56
11987;BME280;6053;51.382;6.768;2023-03-04T00:57:47;102158.19;;;8.37;76.30
11987;BME280;6053;51.382;6.768;2023-03-04T01:00:16;102153.75;;;8.36;76.13
11987;BME280;6053;51.382;6.768;2023-03-04T01:02:45;102154.53;;;7.60;73.60
11987;BME280;6053;51.382;6.768;2023-03-04T01:05:13;102144.81;;;7.80;79.02
11987;BME280;6053;51.382;6.768;2023-03-04T01:07:42;102148.94;;;8.15;77.61
11987;BME280;6053;51.382;6.768;2023-03-04T01:10:13;102142.91;;;8.35;76.53
11987;BME280;6053;51.382;6.768;2023-03-04T01:12:43;102143.81;;;8.35;76.56
11987;BME280;6053;51.382;6.768;2023-03-04T01:15:13;102144.44;;;8.37;76.49
11987;BME280;6053;51.382;6.768;2023-03-04T01:17:41;102144.31;;;8.39;76.66
11987;BME280;6053;51.382;6.768;2023-03-04T01:20:11;102147.50;;;8.19;76.88
11987;BME280;6053;51.382;6.768;2023-03-04T01:22:40;102144.75;;;8.19;76.88
11987;BME280;6053;51.382;6.768;2023-03-04T01:25:09;102146.59;;;8.27;76.93
11987;BME280;6053;51.382;6.768;2023-03-04T01:27:38;102148.41;;;8.35;76.56
11987;BME280;6053;51.382;6.768;2023-03-04T01:30:09;102137.94;;;8.38;76.58
11987;BME280;6053;51.382;6.768;2023-03-04T01:32:38;102131.91;;;8.35;76.49
11987;BME280;6053;51.382;6.768;2023-03-04T01:35:07;102133.97;;;8.41;76.50
11987;BME280;6053;51.382;6.768;2023-03-04T01:37:36;102136.09;;;8.31;76.68
11987;BME280;6053;51.382;6.768;2023-03-04T01:40:05;102130.91;;;8.36;76.37
11987;BME280;6053;51.382;6.768;2023-03-04T01:42:35;102127.31;;;8.35;76.56
11987;BME280;6053;51.382;6.768;2023-03-04T01:45:05;102124.69;;;7.56;76.46
11987;BME280;6053;51.382;6.768;2023-03-04T01:47:35;102122.41;;;7.68;76.44
11987;BME280;6053;51.382;6.768;2023-03-04T01:50:13;102132.28;;;7.86;77.96
11987;BME280;6053;51.382;6.768;2023-03-04T01:52:43;102127.59;;;8.17;77.95
11987;BME280;6053;51.382;6.768;2023-03-04T01:55:15;102128.69;;;8.31;77.10
11987;BME280;6053;51.382;6.768;2023-03-04T01:57:45;102125.22;;;8.37;75.22
11987;BME280;6053;51.382;6.768;2023-03-04T02:00:27;102125.78;;;8.33;76.95
11987;BME280;6053;51.382;6.768;2023-03-04T02:02:59;102118.69;;;8.38;76.69
11987;BME280;6053;51.382;6.768;2023-03-04T02:05:29;102116.72;;;7.70;78.69
11987;BME280;6053;51.382;6.768;2023-03-04T02:07:59;102118.97;;;7.97;77.89
11987;BME280;6053;51.382;6.768;2023-03-04T02:10:28;102114.56;;;7.88;79.12
11987;BME280;6053;51.382;6.768;2023-03-04T02:12:58;102118.50;;;8.17;78.19
11987;BME280;6053;51.382;6.768;2023-03-04T02:15:27;102109.56;;;7.92;78.70
11987;BME280;6053;51.382;6.768;2023-03-04T02:17:58;102110.38;;;8.23;77.72
11987;BME280;6053;51.382;6.768;2023-03-04T02:20:34;102116.31;;;8.35;76.98
11987;BME280;6053;51.382;6.768;2023-03-04T02:23:13;102115.69;;;8.48;76.81
11987;BME280;6053;51.382;6.768;2023-03-04T02:25:48;102116.75;;;8.47;76.36
11987;BME280;6053;51.382;6.768;2023-03-04T02:28:19;102115.53;;;8.49;76.03
11987;BME280;6053;51.382;6.768;2023-03-04T02:30:48;102109.22;;;8.41;76.65
11987;BME280;6053;51.382;6.768;2023-03-04T02:33:17;102097.78;;;8.29;77.16
11987;BME280;6053;51.382;6.768;2023-03-04T02:35:46;102098.22;;;8.41;77.02
11987;BME280;6053;51.382;6.768;2023-03-04T02:38:15;102101.38;;;8.30;76.17
11987;BME280;6053;51.382;6.768;2023-03-04T02:40:47;102102.72;;;7.17;79.33
11987;BME280;6053;51.382;6.768;2023-03-04T02:43:19;102098.94;;;7.89;79.81
11987;BME280;6053;51.382;6.768;2023-03-04T02:45:48;102096.88;;;8.14;77.40
11987;BME280;6053;51.382;6.768;2023-03-04T02:48:20;102091.03;;;7.63;80.88
11987;BME280;6053;51.382;6.768;2023-03-04T02:50:51;102093.91;;;7.69;78.29
11987;BME280;6053;51.382;6.768;2023-03-04T02:53:21;102095.91;;;7.44;78.45
11987;BME280;6053;51.382;6.768;2023-03-04T02:55:51;102090.44;;;7.75;80.59
11987;BME280;6053;51.382;6.768;2023-03-04T02:58:21;102086.31;;;7.01;82.60
11987;BME280;6053;51.382;6.768;2023-03-04T03:00:50;102087.44;;;7.23;82.04
11987;BME280;6053;51.382;6.768;2023-03-04T03:03:19;102080.53;;;7.27;79.49
11987;BME280;6053;51.382;6.768;2023-03-04T03:05:47;102085.22;;;7.18;80.46
11987;BME280;6053;51.382;6.768;2023-03-04T03:08:16;102079.91;;;7.56;78.72
11987;BME280;6053;51.382;6.768;2023-03-04T03:10:45;102079.47;;;7.67;80.48
11987;BME280;6053;51.382;6.768;2023-03-04T03:13:13;102078.09;;;7.94;79.14
11987;BME280;6053;51.382;6.768;2023-03-04T03:15:43;102080.81;;;8.02;78.13
11987;BME280;6053;51.382;6.768;2023-03-04T03:18:14;102079.03;;;6.20;81.98
11987;BME280;6053;51.382;6.768;2023-03-04T03:20:42;102078.63;;;5.82;81.60
11987;BME280;6053;51.382;6.768;2023-03-04T03:23:11;102073.91;;;6.49;81.81
11987;BME280;6053;51.382;6.768;2023-03-04T03:25:40;102075.25;;;6.37;84.63
11987;BME280;6053;51.382;6.768;2023-03-04T03:28:08;102069.19;;;6.91;85.20
11987;BME280;6053;51.382;6.768;2023-03-04T03:30:37;102061.88;;;7.53;80.88
11987;BME280;6053;51.382;6.768;2023-03-04T03:33:07;102066.81;;;6.79;77.30
11987;BME280;6053;51.382;6.768;2023-03-04T03:35:35;102073.69;;;6.75;82.87
11987;BME280;6053;51.382;6.768;2023-03-04T03:38:04;102063.28;;;7.10;80.17
11987;BME280;6053;51.382;6.768;2023-03-04T03:40:33;102061.09;;;7.45;79.36
11987;BME280;6053;51.382;6.768;2023-03-04T03:43:01;102060.31;;;7.59;77.09
11987;BME280;6053;51.382;6.768;2023-03-04T03:45:30;102063.75;;;8.07;80.15
11987;BME280;6053;51.382;6.768;2023-03-04T03:47:59;102054.41;;;7.39;80.66
11987;BME280;6053;51.382;6.768;2023-03-04T03:50:29;102048.66;;;7.57;82.14
11987;BME280;6053;51.382;6.768;2023-03-04T03:52:57;102054.41;;;7.70;79.76
11987;BME280;6053;51.382;6.768;2023-03-04T03:55:26;102060.16;;;7.84;81.20
11987;BME280;6053;51.382;6.768;2023-03-04T03:57:55;102060.41;;;7.97;79.43
11987;BME280;6053;51.382;6.768;2023-03-04T04:00:24;102063.59;;;7.86;79.78
11987;BME280;6053;51.382;6.768;2023-03-04T04:02:53;102070.13;;;7.85;78.15
11987;BME280;6053;51.382;6.768;2023-03-04T04:05:22;102054.78;;;7.36;76.95
11987;BME280;6053;51.382;6.768;2023-03-04T04:07:52;102053.91;;;7.67;79.30
11987;BME280;6053;51.382;6.768;2023-03-04T04:10:21;102055.56;;;7.76;79.38
11987;BME280;6053;51.382;6.768;2023-03-04T04:12:50;102053.94;;;7.36;80.11
11987;BME280;6053;51.382;6.768;2023-03-04T04:15:18;102062.28;;;7.11;80.94
11987;BME280;6053;51.382;6.768;2023-03-04T04:17:47;102049.06;;;7.15;82.10
11987;BME280;6053;51.382;6.768;2023-03-04T04:20:16;102055.06;;;6.38;82.89
11987;BME280;6053;51.382;6.768;2023-03-04T04:22:44;102053.66;;;6.58;82.03
11987;BME280;6053;51.382;6.768;2023-03-04T04:25:14;102056.94;;;6.13;84.82
11987;BME280;6053;51.382;6.768;2023-03-04T04:27:43;102054.03;;;7.11;83.02
11987;BME280;6053;51.382;6.768;2023-03-04T04:30:12;102059.88;;;7.78;82.15
11987;BME280;6053;51.382;6.768;2023-03-04T04:32:41;102056.56;;;6.57;82.77
11987;BME280;6053;51.382;6.768;2023-03-04T04:35:10;102049.56;;;7.18;82.19
11987;BME280;6053;51.382;6.768;2023-03-04T04:37:38;102047.88;;;7.94;80.37
11987;BME280;6053;51.382;6.768;2023-03-04T04:40:08;102056.44;;;8.22;79.29
11987;BME280;6053;51.382;6.768;2023-03-04T04:42:38;102059.59;;;8.34;78.50
11987;BME280;6053;51.382;6.768;2023-03-04T04:45:08;102055.91;;;7.50;80.30
11987;BME280;6053;51.382;6.768;2023-03-04T04:47:36;102049.47;;;7.66;81.94
11987;BME280;6053;51.382;6.768;2023-03-04T04:50:06;102062.38;;;7.88;80.90
11987;BME280;6053;51.382;6.768;2023-03-04T04:52:35;102059.31;;;8.06;79.59
11987;BME280;6053;51.382;6.768;2023-03-04T04:55:04;102060.59;;;6.94;83.53
11987;BME280;6053;51.382;6.768;2023-03-04T04:57:33;102067.19;;;6.68;86.44
11987;BME280;6053;51.382;6.768;2023-03-04T05:00:04;102066.09;;;7.64;82.65
11987;BME280;6053;51.382;6.768;2023-03-04T05:02:33;102065.06;;;7.96;79.81
11987;BME280;6053;51.382;6.768;2023-03-04T05:05:03;102065.97;;;7.89;80.58
11987;BME280;6053;51.382;6.768;2023-03-04T05:07:32;102065.22;;;8.18;79.81
11987;BME280;6053;51.382;6.768;2023-03-04T05:10:01;102073.88;;;7.84;76.18
11987;BME280;6053;51.382;6.768;2023-03-04T05:12:30;102067.91;;;7.18;83.63
11987;BME280;6053;51.382;6.768;2023-03-04T05:14:58;102074.53;;;7.63;80.09
11987;BME280;6053;51.382;6.768;2023-03-04T05:17:28;102073.69;;;6.67;82.79
11987;BME280;6053;51.382;6.768;2023-03-04T05:19:57;102068.25;;;6.02;85.65
11987;BME280;6053;51.382;6.768;2023-03-04T05:22:25;102069.63;;;7.11;86.67
11987;BME280;6053;51.382;6.768;2023-03-04T05:24:54;102070.41;;;7.27;80.49
11987;BME280;6053;51.382;6.768;2023-03-04T05:27:23;102058.97;;;6.68;83.85
11987;BME280;6053;51.382;6.768;2023-03-04T05:29:52;102068.50;;;6.89;82.55
11987;BME280;6053;51.382;6.768;2023-03-04T05:32:21;102056.66;;;7.36;83.23
11987;BME280;6053;51.382;6.768;2023-03-04T05:34:51;102070.31;;;6.41;82.65
11987;BME280;6053;51.382;6.768;2023-03-04T05:37:20;102061.03;;;6.50;83.53
11987;BME280;6053;51.382;6.768;2023-03-04T05:39:48;102063.47;;;7.48;82.49
11987;BME280;6053;51.382;6.768;2023-03-04T05:42:17;102059.19;;;6.26;84.29
11987;BME280;6053;51.382;6.768;2023-03-04T05:44:46;102069.63;;;6.55;84.41
11987;BME280;6053;51.382;6.768;2023-03-04T05:47:14;102075.09;;;6.47;82.61
11987;BME280;6053;51.382;6.768;2023-03-04T05:49:43;102067.41;;;6.01;86.65
11987;BME280;6053;51.382;6.768;2023-03-04T05:52:13;102067.06;;;6.29;84.42
11987;BME280;6053;51.382;6.768;2023-03-04T05:54:41;102069.38;;;6.89;84.73
11987;BME280;6053;51.382;6.768;2023-03-04T05:57:10;102075.03;;;6.79;82.22
11987;BME280;6053;51.382;6.768;2023-03-04T05:59:39;102072.53;;;6.12;82.54
11987;BME280;6053;51.382;6.768;2023-03-04T06:02:07;102071.53;;;7.10;86.17
11987;BME280;6053;51.382;6.768;2023-03-04T06:04:36;102064.19;;;7.73;82.85
11987;BME280;6053;51.382;6.768;2023-03-04T06:07:04;102070.06;;;8.16;79.92
11987;BME280;6053;51.382;6.768;2023-03-04T06:09:35;102071.81;;;8.32;79.49
11987;BME280;6053;51.382;6.768;2023-03-04T06:12:03;102073.91;;;8.07;79.98
11987;BME280;6053;51.382;6.768;2023-03-04T06:14:32;102075.69;;;7.99;80.56
11987;BME280;6053;51.382;6.768;2023-03-04T06:17:00;102074.75;;;7.84;81.41
11987;BME280;6053;51.382;6.768;2023-03-04T06:19:29;102073.22;;;7.19;83.49
11987;BME280;6053;51.382;6.768;2023-03-04T06:21:58;102081.53;;;7.96;81.48
11987;BME280;6053;51.382;6.768;2023-03-04T06:24:26;102084.22;;;7.82;77.17
11987;BME280;6053;51.382;6.768;2023-03-04T06:26:57;102080.16;;;7.69;82.80
11987;BME280;6053;51.382;6.768;2023-03-04T06:29:26;102079.88;;;8.10;79.60
11987;BME280;6053;51.382;6.768;2023-03-04T06:31:54;102088.50;;;8.30;79.04
11987;BME280;6053;51.382;6.768;2023-03-04T06:34:23;102099.59;;;8.37;79.18
11987;BME280;6053;51.382;6.768;2023-03-04T06:36:52;102096.50;;;7.31;79.49
11987;BME280;6053;51.382;6.768;2023-03-04T06:39:20;102097.66;;;7.37;81.51
11987;BME280;6053;51.382;6.768;2023-03-04T06:41:49;102097.69;;;7.68;78.34
11987;BME280;6053;51.382;6.768;2023-03-04T06:44:19;102098.56;;;8.15;80.65
11987;BME280;6053;51.382;6.768;2023-03-04T06:46:48;102105.06;;;8.22;78.72
11987;BME280;6053;51.382;6.768;2023-03-04T06:49:16;102109.09;;;7.88;81.03
11987;BME280;6053;51.382;6.768;2023-03-04T06:51:45;102111.28;;;8.16;78.65
11987;BME280;6053;51.382;6.768;2023-03-04T06:54:14;102109.44;;;7.85;80.71
11987;BME280;6053;51.382;6.768;2023-03-04T06:56:43;102105.41;;;7.96;78.75
11987;BME280;6053;51.382;6.768;2023-03-04T06:59:11;102112.75;;;8.26;78.10
11987;BME280;6053;51.382;6.768;2023-03-04T07:01:41;102103.00;;;8.47;78.62
11987;BME280;6053;51.382;6.768;2023-03-04T07:04:12;102102.94;;;8.55;77.77
11987;BME280;6053;51.382;6.768;2023-03-04T07:06:41;102113.38;;;8.60;77.71
11987;BME280;6053;51.382;6.768;2023-03-04T07:09:10;102113.00;;;8.63;77.36
11987;BME280;6053;51.382;6.768;2023-03-04T07:11:38;102113.28;;;8.68;77.33
11987;BME280;6053;51.382;6.768;2023-03-04T07:14:07;102109.75;;;8.59;77.61
11987;BME280;6053;51.382;6.768;2023-03-04T07:16:35;102117.66;;;7.54;79.46
11987;BME280;6053;51.382;6.768;2023-03-04T07:19:05;102118.94;;;6.71;84.11
11987;BME280;6053;51.382;6.768;2023-03-04T07:21:34;102123.03;;;6.83;86.98
11987;BME280;6053;51.382;6.768;2023-03-04T07:24:04;102125.75;;;7.00;87.37
11987;BME280;6053;51.382;6.768;2023-03-04T07:26:33;102122.44;;;7.60;84.72
11987;BME280;6053;51.382;6.768;2023-03-04T07:29:02;102127.56;;;7.94;82.30
11987;BME280;6053;51.382;6.768;2023-03-04T07:31:32;102122.31;;;8.08;81.29
11987;BME280;6053;51.382;6.768;2023-03-04T07:34:03;102124.91;;;8.32;80.27
11987;BME280;6053;51.382;6.768;2023-03-04T07:36:34;102129.13;;;8.20;80.56
11987;BME280;6053;51.382;6.768;2023-03-04T07:39:04;102123.50;;;8.36;80.26
11987;BME280;6053;51.382;6.768;2023-03-04T07:41:34;102127.38;;;8.50;79.48
11987;BME280;6053;51.382;6.768;2023-03-04T07:44:04;102125.84;;;8.47;79.26
11987;BME280;6053;51.382;6.768;2023-03-04T07:46:34;102130.16;;;8.65;78.57
11987;BME280;6053;51.382;6.768;2023-03-04T07:49:03;102133.28;;;7.53;83.17
11987;BME280;6053;51.382;6.768;2023-03-04T07:51:32;102137.63;;;7.79;83.49
11987;BME280;6053;51.382;6.768;2023-03-04T07:54:02;102123.31;;;7.13;85.79
11987;BME280;6053;51.382;6.768;2023-03-04T07:56:32;102123.91;;;7.71;83.71
11987;BME280;6053;51.382;6.768;2023-03-04T07:59:01;102125.00;;;8.47;80.19
11987;BME280;6053;51.382;6.768;2023-03-04T08:01:31;102127.00;;;8.53;78.67
11987;BME280;6053;51.382;6.768;2023-03-04T08:04:01;102128.34;;;9.10;76.77
11987;BME280;6053;51.382;6.768;2023-03-04T08:06:31;102132.13;;;8.56;79.46
11987;BME280;6053;51.382;6.768;2023-03-04T08:09:02;102130.47;;;8.85;77.85
11987;BME280;6053;51.382;6.768;2023-03-04T08:11:32;102136.56;;;8.34;79.73
11987;BME280;6053;51.382;6.768;2023-03-04T08:14:01;102137.50;;;8.72;78.93
11987;BME280;6053;51.382;6.768;2023-03-04T08:16:30;102138.63;;;8.78;78.54
11987;BME280;6053;51.382;6.768;2023-03-04T08:19:02;102141.03;;;8.58;79.14
11987;BME280;6053;51.382;6.768;2023-03-04T08:21:32;102134.78;;;7.95;83.47
11987;BME280;6053;51.382;6.768;2023-03-04T08:24:03;102141.31;;;7.94;84.25
11987;BME280;6053;51.382;6.768;2023-03-04T08:26:37;102139.78;;;7.92;83.55
11987;BME280;6053;51.382;6.768;2023-03-04T08:29:10;102134.13;;;7.54;85.53
11987;BME280;6053;51.382;6.768;2023-03-04T08:31:40;102142.38;;;8.16;83.08
11987;BME280;6053;51.382;6.768;2023-03-04T08:34:09;102135.81;;;7.94;83.69
11987;BME280;6053;51.382;6.768;2023-03-04T08:36:39;102135.72;;;8.34;81.27
11987;BME280;6053;51.382;6.768;2023-03-04T08:39:12;102138.69;;;8.01;82.84
11987;BME280;6053;51.382;6.768;2023-03-04T08:41:41;102133.38;;;8.68;79.56
11987;BME280;6053;51.382;6.768;2023-03-04T08:44:10;102133.22;;;8.85;78.89
11987;BME280;6053;51.382;6.768;2023-03-04T08:46:40;102135.06;;;8.92;78.50
11987;BME280;6053;51.382;6.768;2023-03-04T08:49:11;102130.19;;;7.88;84.17
11987;BME280;6053;51.382;6.768;2023-03-04T08:51:40;102142.03;;;8.65;80.31
11987;BME280;6053;51.382;6.768;2023-03-04T08:54:12;102129.16;;;8.35;82.81
11987;BME280;6053;51.382;6.768;2023-03-04T08:56:41;102130.38;;;8.40;81.62
11987;BME280;6053;51.382;6.768;2023-03-04T08:59:09;102137.75;;;8.63;80.64
11987;BME280;6053;51.382;6.768;2023-03-04T09:01:38;102131.09;;;8.57;80.65
11987;BME280;6053;51.382;6.768;2023-03-04T09:04:07;102131.44;;;8.31;82.84
11987;BME280;6053;51.382;6.768;2023-03-04T09:06:36;102130.38;;;8.78;80.42
11987;BME280;6053;51.382;6.768;2023-03-04T09:09:04;102127.81;;;8.62;80.95
11987;BME280;6053;51.382;6.768;2023-03-04T09:11:34;102137.28;;;7.82;84.33
11987;BME280;6053;51.382;6.768;2023-03-04T09:14:03;102137.69;;;7.94;84.86
11987;BME280;6053;51.382;6.768;2023-03-04T09:16:32;102136.56;;;7.49;87.48
11987;BME280;6053;51.382;6.768;2023-03-04T09:19:01;102135.78;;;8.25;85.87
11987;BME280;6053;51.382;6.768;2023-03-04T09:21:29;102141.28;;;8.71;81.80
11987;BME280;6053;51.382;6.768;2023-03-04T09:23:58;102134.63;;;8.66;82.06
11987;BME280;6053;51.382;6.768;2023-03-04T09:26:28;102140.56;;;9.22;78.80
11987;BME280;6053;51.382;6.768;2023-03-04T09:28:59;102130.94;;;8.04;84.33
11987;BME280;6053;51.382;6.768;2023-03-04T09:31:29;102127.97;;;8.37;83.99
11987;BME280;6053;51.382;6.768;2023-03-04T09:33:58;102123.09;;;8.01;86.02
11987;BME280;6053;51.382;6.768;2023-03-04T09:36:27;102131.06;;;8.11;85.21
11987;BME280;6053;51.382;6.768;2023-03-04T09:38:58;102135.22;;;8.30;84.15
11987;BME280;6053;51.382;6.768;2023-03-04T09:41:34;102123.81;;;7.95;86.72
11987;BME280;6053;51.382;6.768;2023-03-04T09:44:11;102129.72;;;8.30;84.02
11987;BME280;6053;51.382;6.768;2023-03-04T09:46:42;102128.50;;;7.47;90.95
11987;BME280;6053;51.382;6.768;2023-03-04T09:49:11;102124.13;;;7.61;90.64
11987;BME280;6053;51.382;6.768;2023-03-04T09:51:46;102121.84;;;8.27;87.46
11987;BME280;6053;51.382;6.768;2023-03-04T09:54:23;102117.78;;;8.46;85.72
11987;BME280;6053;51.382;6.768;2023-03-04T09:56:59;102109.53;;;8.46;85.80
11987;BME280;6053;51.382;6.768;2023-03-04T09:59:39;102117.41;;;8.49;84.40
11987;BME280;6053;51.382;6.768;2023-03-04T10:02:17;102116.75;;;9.14;80.96
11987;BME280;6053;51.382;6.768;2023-03-04T10:04:50;102125.06;;;9.65;77.66
11987;BME280;6053;51.382;6.768;2023-03-04T10:07:23;102105.84;;;9.06;80.73
11987;BME280;6053;51.382;6.768;2023-03-04T10:09:55;102104.00;;;9.73;77.33
11987;BME280;6053;51.382;6.768;2023-03-04T10:12:29;102107.28;;;8.64;82.35
11987;BME280;6053;51.382;6.768;2023-03-04T10:15:04;102096.53;;;8.40;84.24
11987;BME280;6053;51.382;6.768;2023-03-04T10:17:36;102104.78;;;8.40;85.39
11987;BME280;6053;51.382;6.768;2023-03-04T10:20:10;102099.47;;;8.91;82.27
11987;BME280;6053;51.382;6.768;2023-03-04T10:22:44;102106.31;;;9.25;79.50
11987;BME280;6053;51.382;6.768;2023-03-04T10:25:18;102110.56;;;9.57;78.36
11987;BME280;6053;51.382;6.768;2023-03-04T10:27:53;102096.97;;;8.66;82.82
11987;BME280;6053;51.382;6.768;2023-03-04T10:30:39;102097.69;;;7.91;87.02
11987;BME280;6053;51.382;6.768;2023-03-04T10:33:15;102092.09;;;8.54;84.33
11987;BME280;6053;51.382;6.768;2023-03-04T10:35:46;102102.03;;;9.22;80.66
11987;BME280;6053;51.382;6.768;2023-03-04T10:38:19;102099.00;;;9.17;79.85
11987;BME280;6053;51.382;6.768;2023-03-04T10:40:48;102101.22;;;7.77;88.83
11987;BME280;6053;51.382;6.768;2023-03-04T10:43:18;102099.88;;;7.42;94.19
11987;BME280;6053;51.382;6.768;2023-03-04T10:45:54;102093.94;;;7.92;90.75
11987;BME280;6053;51.382;6.768;2023-03-04T10:48:25;102102.53;;;7.89;91.92
11987;BME280;6053;51.382;6.768;2023-03-04T10:51:11;102096.06;;;8.89;85.18
11987;BME280;6053;51.382;6.768;2023-03-04T10:53:41;102095.09;;;9.11;83.22
11987;BME280;6053;51.382;6.768;2023-03-04T10:56:30;102088.25;;;9.88;78.79
11987;BME280;6053;51.382;6.768;2023-03-04T10:59:30;102094.25;;;8.96;81.95
11987;BME280;6053;51.382;6.768;2023-03-04T11:02:01;102087.22;;;8.41;84.68
11987;BME280;6053;51.382;6.768;2023-03-04T11:04:38;102089.97;;;7.95;87.48
11987;BME280;6053;51.382;6.768;2023-03-04T11:07:08;102083.88;;;8.68;85.29
11987;BME280;6053;51.382;6.768;2023-03-04T11:09:38;102087.41;;;8.92;82.06
11987;BME280;6053;51.382;6.768;2023-03-04T11:12:11;102071.56;;;9.24;81.54
11987;BME280;6053;51.382;6.768;2023-03-04T11:14:41;102085.81;;;9.27;81.79
11987;BME280;6053;51.382;6.768;2023-03-04T11:17:20;102076.81;;;8.51;84.32
11987;BME280;6053;51.382;6.768;2023-03-04T11:19:54;102077.72;;;8.66;83.93
11987;BME280;6053;51.382;6.768;2023-03-04T11:22:24;102073.28;;;9.10;82.29
11987;BME280;6053;51.382;6.768;2023-03-04T11:25:01;102068.56;;;8.51;86.22
11987;BME280;6053;51.382;6.768;2023-03-04T11:27:43;102063.19;;;8.58;85.46
11987;BME280;6053;51.382;6.768;2023-03-04T11:30:23;102064.44;;;8.85;83.91
11987;BME280;6053;51.382;6.768;2023-03-04T11:33:03;102055.53;;;8.83;84.17
11987;BME280;6053;51.382;6.768;2023-03-04T11:35:41;102065.16;;;8.49;83.16
11987;BME280;6053;51.382;6.768;2023-03-04T11:38:17;102052.00;;;8.74;83.38
11987;BME280;6053;51.382;6.768;2023-03-04T11:40:50;102052.38;;;8.33;85.82
11987;BME280;6053;51.382;6.768;2023-03-04T11:43:25;102052.44;;;8.48;85.29
11987;BME280;6053;51.382;6.768;2023-03-04T11:46:37;102046.88;;;8.56;86.38
11987;BME280;6053;51.382;6.768;2023-03-04T11:49:31;102046.50;;;9.70;80.75
11987;BME280;6053;51.382;6.768;2023-03-04T11:52:12;102042.53;;;9.06;81.68
11987;BME280;6053;51.382;6.768;2023-03-04T11:54:50;102034.75;;;8.65;86.21
11987;BME280;6053;51.382;6.768;2023-03-04T11:57:33;102039.88;;;8.08;87.71
11987;BME280;6053;51.382;6.768;2023-03-04T12:00:29;102024.31;;;8.00;90.14
11987;BME280;6053;51.382;6.768;2023-03-04T12:03:21;102026.78;;;7.95;89.92
11987;BME280;6053;51.382;6.768;2023-03-04T12:05:59;102018.59;;;8.24;90.62
11987;BME280;6053;51.382;6.768;2023-03-04T12:08:41;102017.06;;;8.45;89.75
11987;BME280;6053;51.382;6.768;2023-03-04T12:11:24;102019.09;;;8.95;87.19
11987;BME280;6053;51.382;6.768;2023-03-04T12:14:09;102013.69;;;8.87;87.69
11987;BME280;6053;51.382;6.768;2023-03-04T12:20:23;101999.94;;;8.72;89.37
11987;BME280;6053;51.382;6.768;2023-03-04T12:23:01;101995.47;;;8.42;89.17
11987;BME280;6053;51.382;6.768;2023-03-04T12:25:40;101994.59;;;8.71;88.82
11987;BME280;6053;51.382;6.768;2023-03-04T12:28:24;101997.28;;;8.79;88.04
11987;BME280;6053;51.382;6.768;2023-03-04T12:31:06;101999.19;;;8.26;92.11
11987;BME280;6053;51.382;6.768;2023-03-04T12:33:46;101992.81;;;8.48;92.72
11987;BME280;6053;51.382;6.768;2023-03-04T12:36:24;101984.31;;;8.35;93.26
11987;BME280;6053;51.382;6.768;2023-03-04T12:39:08;101980.09;;;8.47;92.63
11987;BME280;6053;51.382;6.768;2023-03-04T12:41:45;101974.06;;;9.18;88.40
11987;BME280;6053;51.382;6.768;2023-03-04T12:44:18;101968.50;;;8.96;87.52
11987;BME280;6053;51.382;6.768;2023-03-04T12:47:06;101976.78;;;8.52;90.99
11987;BME280;6053;51.382;6.768;2023-03-04T12:52:37;101979.25;;;8.77;90.55
11987;BME280;6053;51.382;6.768;2023-03-04T12:55:15;101972.06;;;7.39;100.00
11987;BME280;6053;51.382;6.768;2023-03-04T12:57:44;101975.22;;;7.51;100.00
11987;BME280;6053;51.382;6.768;2023-03-04T13:00:23;101975.97;;;7.91;100.00
11987;BME280;6053;51.382;6.768;2023-03-04T13:03:04;101970.47;;;7.68;100.00
11987;BME280;6053;51.382;6.768;2023-03-04T13:05:56;101960.88;;;7.87;100.00
11987;BME280;6053;51.382;6.768;2023-03-04T13:08:36;101973.75;;;8.77;96.63
11987;BME280;6053;51.382;6.768;2023-03-04T13:11:41;101973.38;;;8.50;98.76
11987;BME280;6053;51.382;6.768;2023-03-04T13:14:30;101977.31;;;9.07;93.35
11987;BME280;6053;51.382;6.768;2023-03-04T13:17:00;101966.06;;;8.57;97.12
11987;BME280;6053;51.382;6.768;2023-03-04T13:19:43;101969.91;;;9.43;90.52
11987;BME280;6053;51.382;6.768;2023-03-04T13:22:46;101962.63;;;8.85;96.45
11987;BME280;6053;51.382;6.768;2023-03-04T13:25:31;101961.16;;;9.18;94.08
11987;BME280;6053;51.382;6.768;2023-03-04T13:28:19;101956.56;;;8.89;95.72
11987;BME280;6053;51.382;6.768;2023-03-04T13:31:23;101943.69;;;9.26;91.76
11987;BME280;6053;51.382;6.768;2023-03-04T13:34:01;101953.84;;;9.26;90.37
11987;BME280;6053;51.382;6.768;2023-03-04T13:36:52;101945.59;;;9.68;88.48
11987;BME280;6053;51.382;6.768;2023-03-04T13:39:27;101940.81;;;9.56;89.94
11987;BME280;6053;51.382;6.768;2023-03-04T13:41:57;101943.84;;;9.25;90.18